Tuesday, July 17, 2018, 1:28 AM EDT
Back to Local

KSWF, Newburgh / Stewart

Location: New Windsor, NY, United States Lat: 41.5
Local Time: 1:28 AM EDT ( 5:28 GMT) Lon: -74.1
Time Zone: US/Eastern Elev: 492 ft

Show me the last for .
Show Decoded

2018-07-17 00:45 METAR KSWF 170445Z 00000KT 10SM SKC 26/23 A2992 =
2018-07-16 23:45 METAR KSWF 170345Z 00000KT 10SM SKC 27/23 A2991 =
2018-07-16 22:45 METAR KSWF 170245Z 00000KT 7SM FEW070 27/23 A2992 =
2018-07-16 21:45 METAR KSWF 170145Z 00000KT 7SM FEW070 27/23 A2993 =
2018-07-16 20:45 METAR KSWF 170045Z VRB04KT 7SM FEW070 27/23 A2991 =
2018-07-16 19:45 METAR KSWF 162345Z VRB04KT 20SM FEW070 28/24 A2991 =
2018-07-16 18:45 METAR KSWF 162245Z VRB05KT 20SM FEW070 30/24 A2992 =
2018-07-16 17:45 METAR KSWF 162145Z VRB05KT 20SM FEW070 32/23 A2991 =
2018-07-16 15:45 METAR KSWF 161945Z VRB05KT 20SM FEW050 SCT060 BKN100 33/23 A2993 =
2018-07-16 14:45 METAR KSWF 161845Z 18007KT 20SM SCT030 33/23 A2995 =
2018-07-16 13:45 METAR KSWF 161745Z 00000KT 20SM SCT030 33/23 A2997 =
2018-07-16 12:45 METAR KSWF 161645Z 00000KT 20SM SCT025 31/22 A2998 =
2018-07-16 11:45 METAR KSWF 161545Z 26005KT 20SM SKC 27/23 A3000 =
2018-07-16 10:45 METAR KSWF 161445Z 26005KT 20SM SKC 27/23 A3000 =
2018-07-16 09:45 METAR KSWF 161345Z 26005KT 20SM SKC 27/23 A3001 =
2018-07-16 08:45 METAR KSWF 161245Z 26005KT 20SM SKC 25/23 A3001 =
2018-07-16 07:45 METAR KSWF 161145Z 26005KT 20SM SKC 24/23 A3001 =
2018-07-16 06:45 METAR KSWF 161045Z 00000KT 20SM SKC 22/22 A3001 =
2018-07-16 05:45 METAR KSWF 160945Z 00000KT 10SM SKC 21/21 A2999 =
2018-07-16 04:45 METAR KSWF 160845Z 00000KT 10SM SKC 21/21 A2999 =
2018-07-16 03:45 METAR KSWF 160745Z 00000KT 10SM SKC 22/22 A2999 =
2018-07-16 02:45 METAR KSWF 160645Z 00000KT 10SM SKC 24/23 A2999 =
2018-07-16 01:45 METAR KSWF 160545Z 00000KT 10SM SKC 24/23 A2999 =

Support USWX by starting your Amazon purchase here.